Time;durP1;ratioP1;P1;durP2;ratioP2;P2;SDS_P1;SDS_P2;PMS_P1;PMS_P2;Temp;Humidity;BMP_temperature;BMP_pressure;BME280_temperature;BME280_humidity;BME280_pressure;Samples;Min_cycle;Max_cycle;Signal;HPM_P1;HPM_P2
2022/04/18 00:01:31;;;;;;;8.40;7.67;;;;;;;0.69;100.00;99854.34;6126552;23;20246;-77
2022/04/18 00:03:59;;;;;;;8.83;7.93;;;;;;;0.70;100.00;99857.81;6126688;23;20503;-77
2022/04/18 00:06:26;;;;;;;9.17;7.57;;;;;;;0.69;100.00;99854.34;6126411;23;20198;-78
2022/04/18 00:08:53;;;;;;;7.97;7.27;;;;;;;0.71;100.00;99856.81;6126244;23;20201;-77
2022/04/18 00:11:20;;;;;;;8.00;7.27;;;;;;;0.74;100.00;99856.53;6126759;23;20175;-78
2022/04/18 00:13:46;;;;;;;7.77;7.07;;;;;;;0.70;100.00;99857.81;6126189;23;20195;-77
2022/04/18 00:16:13;;;;;;;7.83;7.13;;;;;;;0.70;100.00;99845.41;6126606;23;20178;-80
2022/04/18 00:18:40;;;;;;;8.10;7.30;;;;;;;0.67;100.00;99848.38;6126580;23;20188;-78
2022/04/18 00:21:06;;;;;;;7.80;7.00;;;;;;;0.63;100.00;99849.66;6126051;23;20724;-77
2022/04/18 00:23:33;;;;;;;7.27;6.57;;;;;;;0.61;100.00;99837.59;6126243;23;20246;-77
2022/04/18 00:26:00;;;;;;;7.10;6.50;;;;;;;0.57;100.00;99831.78;6126340;23;20164;-77
2022/04/18 00:28:26;;;;;;;7.60;6.90;;;;;;;0.56;100.00;99835.41;6126416;23;20198;-78
2022/04/18 00:30:53;;;;;;;6.97;6.40;;;;;;;0.57;100.00;99830.97;6126050;23;20160;-77
2022/04/18 00:33:20;;;;;;;6.90;6.30;;;;;;;0.51;100.00;99826.31;6126563;23;20166;-77
2022/04/18 00:35:47;;;;;;;7.00;6.40;;;;;;;0.52;100.00;99828.78;6126076;23;20163;-77
2022/04/18 00:38:13;;;;;;;6.67;6.07;;;;;;;0.55;100.00;99825.03;6126110;23;20570;-78
2022/04/18 00:40:40;;;;;;;6.73;6.13;;;;;;;0.51;100.00;99816.59;6125988;23;20183;-78
2022/04/18 00:43:07;;;;;;;6.40;5.80;;;;;;;0.52;100.00;99820.03;6125930;23;20160;-78
2022/04/18 00:45:34;;;;;;;6.40;5.90;;;;;;;0.49;100.00;99815.06;6125863;23;20169;-78
2022/04/18 00:48:01;;;;;;;6.53;5.93;;;;;;;0.51;100.00;99815.78;6126093;23;20219;-77
2022/04/18 00:50:29;;;;;;;6.60;6.00;;;;;;;0.46;100.00;99808.31;6126112;23;20215;-77
2022/04/18 00:52:56;;;;;;;6.70;6.10;;;;;;;0.49;100.00;99813.28;6126100;23;20159;-78
2022/04/18 00:55:26;;;;;;;7.17;6.13;;;;;;;0.47;100.00;99806.50;6075941;23;20519;-77
2022/04/18 00:57:54;;;;;;;6.80;6.20;;;;;;;0.47;100.00;99802.03;6125901;23;20170;-78
2022/04/18 01:00:22;;;;;;;7.20;6.50;;;;;;;0.44;100.00;99805.81;6100186;23;20164;-78
2022/04/18 01:02:48;;;;;;;7.50;6.20;;;;;;;0.40;100.00;99803.63;6099704;23;20559;-77
2022/04/18 01:05:15;;;;;;;7.10;6.50;;;;;;;0.38;100.00;99805.56;6100108;23;20550;-78
2022/04/18 01:07:42;;;;;;;6.80;6.13;;;;;;;0.37;100.00;99802.09;6099885;23;20222;-77
2022/04/18 01:10:09;;;;;;;6.70;6.07;;;;;;;0.40;100.00;99801.00;6099668;23;20175;-77
2022/04/18 01:12:38;;;;;;;7.57;6.77;;;;;;;0.31;100.00;99799.25;6125877;23;20163;-77
2022/04/18 01:15:27;;;;;;;7.50;6.80;;;;;;;0.19;100.00;99795.16;6110096;23;20207;-77
2022/04/18 01:17:57;;;;;;;7.03;6.33;;;;;;;0.13;100.00;99790.53;6125622;23;20199;-77
2022/04/18 01:21:06;;;;;;;6.73;6.03;;;;;;;0.08;100.00;99787.50;6104734;23;20665;-77
2022/04/18 01:28:58;;;;;;;7.57;6.87;;;;;;;0.03;100.00;99782.69;6099851;23;20171;-77
2022/04/18 01:29:49;;;;;;;8.30;6.93;;;;;;;-0.07;100.00;99772.19;6124207;23;20199;-77
2022/04/18 01:32:15;;;;;;;7.03;6.33;;;;;;;-0.15;100.00;99769.50;6099502;23;20176;-77
2022/04/18 01:34:42;;;;;;;8.43;7.70;;;;;;;-0.18;100.00;99772.41;6125852;23;20164;-77
2022/04/18 01:37:09;;;;;;;6.97;6.33;;;;;;;-0.20;100.00;99765.63;6125818;23;20191;-78
2022/04/18 01:39:35;;;;;;;6.60;6.00;;;;;;;-0.29;100.00;99761.25;6125471;23;20560;-78
2022/04/18 01:42:02;;;;;;;7.20;6.60;;;;;;;-0.31;100.00;99755.28;6099718;23;20175;-77
2022/04/18 01:44:29;;;;;;;7.40;6.57;;;;;;;-0.34;100.00;99763.50;6099549;23;20218;-79
2022/04/18 01:46:56;;;;;;;7.20;6.50;;;;;;;-0.37;100.00;99755.91;6099922;23;20178;-77
2022/04/18 01:49:23;;;;;;;7.03;6.40;;;;;;;-0.43;100.00;99757.31;6099544;23;20207;-78
2022/04/18 01:51:50;;;;;;;7.10;6.50;;;;;;;-0.46;100.00;99757.59;6125471;23;20640;-76
2022/04/18 01:54:17;;;;;;;7.13;6.40;;;;;;;-0.49;100.00;99758.72;6099734;23;20199;-77
2022/04/18 01:56:44;;;;;;;7.13;6.20;;;;;;;-0.54;100.00;99760.13;6100269;23;20503;-77
2022/04/18 01:59:11;;;;;;;7.23;6.63;;;;;;;-0.54;100.00;99757.50;6099439;23;20593;-77
2022/04/18 02:01:38;;;;;;;6.30;5.70;;;;;;;-0.63;100.00;99743.41;6099702;23;20572;-77
2022/04/18 02:04:05;;;;;;;7.20;6.60;;;;;;;-0.65;100.00;99749.78;6125377;23;20238;-77
2022/04/18 02:06:32;;;;;;;7.13;6.40;;;;;;;-0.73;100.00;99747.88;6125570;23;20169;-78
2022/04/18 02:08:59;;;;;;;7.47;6.67;;;;;;;-0.75;100.00;99751.66;6125139;23;20195;-78
2022/04/18 02:11:26;;;;;;;7.37;6.67;;;;;;;-0.77;100.00;99745.69;6099657;23;20541;-78
2022/04/18 02:13:55;;;;;;;7.10;6.40;;;;;;;-0.82;100.00;99738.22;6099671;23;20541;-78
2022/04/18 02:16:23;;;;;;;7.07;6.47;;;;;;;-0.85;100.00;99732.44;6099374;23;20171;-78
2022/04/18 02:18:52;;;;;;;7.57;6.83;;;;;;;-0.86;100.00;99738.66;6100024;23;20258;-78
2022/04/18 02:21:19;;;;;;;6.90;6.30;;;;;;;-0.86;100.00;99726.34;6118868;23;20206;-78
2022/04/18 02:23:46;;;;;;;7.00;6.30;;;;;;;-0.89;100.00;99724.00;6096296;23;20243;-78
2022/04/18 02:26:14;;;;;;;7.03;6.37;;;;;;;-0.93;100.00;99725.25;6094790;23;20267;-77
2022/04/18 02:28:43;;;;;;;7.40;6.63;;;;;;;-0.94;100.00;99729.69;6095742;23;20192;-78
2022/04/18 02:31:11;;;;;;;7.47;6.77;;;;;;;-0.95;100.00;99725.41;6096680;23;20172;-77
2022/04/18 02:33:38;;;;;;;6.77;6.17;;;;;;;-0.97;100.00;99711.56;6096832;23;20518;-77
2022/04/18 02:36:05;;;;;;;7.30;6.67;;;;;;;-0.95;100.00;99706.16;6098090;23;20160;-78
2022/04/18 02:38:32;;;;;;;6.97;6.37;;;;;;;-0.99;100.00;99700.38;6097937;23;20176;-78
2022/04/18 02:40:59;;;;;;;6.53;5.93;;;;;;;-0.98;100.00;99702.00;6096724;23;20580;-77
2022/04/18 02:43:27;;;;;;;6.93;6.33;;;;;;;-1.02;100.00;99695.38;6096593;23;20180;-77
2022/04/18 02:46:00;;;;;;;7.07;6.30;;;;;;;-1.05;100.00;99695.69;6096801;23;20652;-77
2022/04/18 02:48:30;;;;;;;7.43;6.50;;;;;;;-1.09;100.00;99691.69;6098195;23;20208;-78
2022/04/18 02:50:58;;;;;;;6.93;6.30;;;;;;;-1.12;100.00;99683.25;6072775;23;20690;-77
2022/04/18 02:53:28;;;;;;;6.80;6.20;;;;;;;-1.18;100.00;99682.03;6096482;23;20255;-77
2022/04/18 02:55:59;;;;;;;6.73;6.13;;;;;;;-1.18;100.00;99689.09;6096311;23;20706;-77
2022/04/18 02:58:26;;;;;;;6.23;5.73;;;;;;;-1.21;100.00;99686.75;6096502;23;20276;-77
2022/04/18 03:00:53;;;;;;;7.13;6.43;;;;;;;-1.22;100.00;99685.94;6096143;23;20173;-77
2022/04/18 03:03:20;;;;;;;6.53;5.90;;;;;;;-1.27;100.00;99689.94;6096411;23;20203;-78
2022/04/18 03:05:48;;;;;;;6.70;6.10;;;;;;;-1.30;100.00;99682.31;6096138;23;20495;-77
2022/04/18 03:08:16;;;;;;;6.73;6.13;;;;;;;-1.29;100.00;99682.19;6096140;23;20168;-78
2022/04/18 03:13:30;;;;;;;7.73;6.90;;;;;;;-1.30;100.00;99687.59;6097911;23;20279;-77
2022/04/18 03:15:57;;;;;;;7.23;6.53;;;;;;;-1.31;100.00;99675.44;6096172;23;20203;-77
2022/04/18 03:18:25;;;;;;;8.17;6.70;;;;;;;-1.34;100.00;99671.28;6096199;23;20513;-78
2022/04/18 03:20:53;;;;;;;7.10;6.30;;;;;;;-1.37;100.00;99668.94;6096084;23;20208;-77
2022/04/18 03:23:20;;;;;;;6.67;6.07;;;;;;;-1.43;100.00;99669.50;6097679;23;20243;-77
2022/04/18 03:26:09;;;;;;;6.90;6.23;;;;;;;-1.46;100.00;99667.19;6096215;23;20520;-79
2022/04/18 03:28:43;;;;;;;6.50;6.00;;;;;;;-1.49;100.00;99659.56;6096139;23;20192;-77
2022/04/18 03:31:11;;;;;;;7.60;6.90;;;;;;;-1.50;100.00;99666.63;6097440;23;20231;-77
2022/04/18 03:33:38;;;;;;;7.60;6.57;;;;;;;-1.51;100.00;99664.97;6095832;23;20196;-78
2022/04/18 03:41:39;;;;;;;7.63;6.93;;;;;;;-1.53;100.00;99655.56;6095905;23;20681;-78
2022/04/18 03:44:06;;;;;;;7.87;7.13;;;;;;;-1.53;100.00;99651.13;6097523;23;20172;-77
2022/04/18 03:46:32;;;;;;;7.90;7.10;;;;;;;-1.55;100.00;99655.72;6097544;23;20498;-77
2022/04/18 03:49:00;;;;;;;8.07;7.27;;;;;;;-1.52;100.00;99654.59;6120228;23;20275;-77
2022/04/18 03:51:27;;;;;;;8.07;7.27;;;;;;;-1.50;100.00;99652.66;6097583;23;20168;-77
2022/04/18 03:53:54;;;;;;;8.00;7.13;;;;;;;-1.48;100.00;99653.34;6095910;23;20551;-78
2022/04/18 03:56:24;;;;;;;8.73;7.63;;;;;;;-1.46;100.00;99654.88;6095755;23;20172;-77
2022/04/18 03:59:09;;;;;;;10.20;7.70;;;;;;;-1.45;100.00;99655.69;6097924;23;20161;-77
2022/04/18 04:01:59;;;;;;;9.03;8.13;;;;;;;-1.44;100.00;99652.91;6095533;23;20176;-78
2022/04/18 04:04:28;;;;;;;8.47;7.67;;;;;;;-1.42;100.00;99643.09;6095792;23;20515;-77
2022/04/18 04:06:59;;;;;;;8.97;7.90;;;;;;;-1.39;100.00;99641.97;6095907;23;20483;-77
2022/04/18 04:09:25;;;;;;;8.67;7.57;;;;;;;-1.34;100.00;99645.81;6095585;23;20642;-78
2022/04/18 04:11:52;;;;;;;9.83;8.43;;;;;;;-1.26;100.00;99649.56;6095654;23;20199;-77
2022/04/18 04:14:20;;;;;;;10.53;8.73;;;;;;;-1.19;100.00;99646.19;6096364;23;20598;-78
2022/04/18 04:16:48;;;;;;;8.47;7.57;;;;;;;-1.16;100.00;99643.25;6095632;23;20169;-78
2022/04/18 04:19:14;;;;;;;8.47;7.57;;;;;;;-1.10;100.00;99640.06;6071758;23;20175;-78
2022/04/18 04:21:41;;;;;;;9.37;7.80;;;;;;;-1.03;100.00;99643.78;6095200;23;20200;-78
2022/04/18 04:24:08;;;;;;;8.80;7.90;;;;;;;-0.98;100.00;99644.16;6095757;23;20492;-77
2022/04/18 04:26:56;;;;;;;8.67;7.63;;;;;;;-0.92;100.00;99643.56;6095598;23;20626;-77
2022/04/18 04:29:23;;;;;;;8.20;7.23;;;;;;;-0.86;100.00;99651.84;6095670;23;20634;-78
2022/04/18 04:31:53;;;;;;;8.87;7.80;;;;;;;-0.85;100.00;99649.09;6097402;23;20610;-77
2022/04/18 04:34:20;;;;;;;8.57;7.67;;;;;;;-0.78;100.00;99642.25;6095404;23;20636;-78
2022/04/18 04:37:05;;;;;;;8.53;7.60;;;;;;;-0.73;100.00;99645.28;6096907;23;20228;-77
2022/04/18 04:39:32;;;;;;;8.13;6.70;;;;;;;-0.66;100.00;99645.53;6095361;23;20184;-77
2022/04/18 04:41:59;;;;;;;8.30;7.07;;;;;;;-0.62;100.00;99645.09;6095761;23;20602;-77
2022/04/18 04:44:26;;;;;;;10.90;7.20;;;;;;;-0.53;100.00;99636.28;6095453;23;20263;-77
2022/04/18 04:46:57;;;;;;;8.10;6.70;;;;;;;-0.48;100.00;99633.22;6095435;23;20169;-77
2022/04/18 04:49:27;;;;;;;7.67;6.97;;;;;;;-0.42;100.00;99634.44;6119542;23;20196;-78
2022/04/18 04:52:13;;;;;;;8.23;7.07;;;;;;;-0.33;100.00;99636.16;6096447;23;20678;-78
2022/04/18 04:54:41;;;;;;;7.47;6.73;;;;;;;-0.27;100.00;99625.00;6095205;23;20547;-78
2022/04/18 04:57:11;;;;;;;8.20;7.17;;;;;;;-0.19;100.00;99631.19;6095143;23;20180;-78
2022/04/18 04:59:58;;;;;;;8.23;6.60;;;;;;;-0.07;100.00;99634.41;6094437;23;20204;-77
2022/04/18 05:02:25;;;;;;;27.73;15.73;;;;;;;0.06;100.00;99634.03;6095148;23;20175;-77
2022/04/18 05:04:53;;;;;;;13.47;8.43;;;;;;;0.28;100.00;99626.44;6095058;23;20195;-77
2022/04/18 05:07:19;;;;;;;8.20;7.30;;;;;;;0.66;100.00;99625.22;6095099;23;20168;-78
2022/04/18 05:10:09;;;;;;;7.60;6.80;;;;;;;1.07;100.00;99626.25;6095049;23;20192;-77
2022/04/18 05:12:37;;;;;;;8.13;6.47;;;;;;;1.36;100.00;99617.91;6095119;23;20243;-78
2022/04/18 05:15:06;;;;;;;5.43;4.90;;;;;;;1.69;100.00;99619.63;6094787;23;20172;-77
2022/04/18 05:17:53;;;;;;;7.23;5.30;;;;;;;2.05;100.00;99614.06;6096583;23;20200;-78
2022/04/18 05:20:21;;;;;;;6.90;5.10;;;;;;;2.39;100.00;99608.56;6095190;23;20227;-78
2022/04/18 05:22:50;;;;;;;6.33;4.93;;;;;;;2.83;100.00;99611.59;6094881;23;20175;-78
2022/04/18 05:25:17;;;;;;;5.10;4.60;;;;;;;3.03;100.00;99610.22;6095161;23;20176;-78
2022/04/18 05:27:45;;;;;;;4.97;4.47;;;;;;;3.24;100.00;99605.13;6095098;23;20682;-78
2022/04/18 05:30:31;;;;;;;4.77;4.37;;;;;;;3.43;100.00;99612.66;6095073;23;20211;-77
2022/04/18 05:32:59;;;;;;;5.03;4.53;;;;;;;3.61;100.00;99600.94;6095521;23;20629;-78
2022/04/18 05:35:26;;;;;;;5.00;4.50;;;;;;;3.84;100.00;99604.44;6095051;23;20173;-77
2022/04/18 05:37:53;;;;;;;5.50;5.00;;;;;;;4.07;100.00;99605.25;6095410;23;20272;-77
2022/04/18 05:40:28;;;;;;;5.70;5.10;;;;;;;4.27;100.00;99603.75;6095279;23;20621;-77
2022/04/18 05:42:55;;;;;;;5.23;4.67;;;;;;;4.52;100.00;99599.03;6095033;23;20519;-77
2022/04/18 05:45:23;;;;;;;5.07;4.57;;;;;;;4.65;100.00;99601.88;6095184;23;20176;-77
2022/04/18 05:48:00;;;;;;;5.30;4.80;;;;;;;4.85;100.00;99602.97;6095519;23;20179;-77
2022/04/18 05:50:32;;;;;;;5.17;4.67;;;;;;;4.99;100.00;99604.00;6094829;23;20196;-77
2022/04/18 05:53:15;;;;;;;5.33;4.90;;;;;;;5.11;100.00;99599.84;6094933;23;20224;-78
2022/04/18 05:56:01;;;;;;;5.00;4.40;;;;;;;5.24;100.00;99594.69;6096409;23;20219;-77
2022/04/18 05:59:00;;;;;;;5.43;4.80;;;;;;;5.42;100.00;99598.78;6075535;23;20169;-77
2022/04/18 06:01:30;;;;;;;5.43;4.93;;;;;;;5.49;100.00;99599.69;6096577;23;20176;-77
2022/04/18 06:04:01;;;;;;;5.57;4.97;;;;;;;5.50;100.00;99599.50;6094309;23;20251;-77
2022/04/18 06:06:29;;;;;;;6.07;5.20;;;;;;;5.56;100.00;99603.22;6119023;23;20168;-77
2022/04/18 06:08:56;;;;;;;5.43;4.73;;;;;;;5.67;100.00;99597.44;6094375;23;20179;-77
2022/04/18 06:11:26;;;;;;;5.60;5.00;;;;;;;5.79;100.00;99593.25;6094597;23;20168;-77
2022/04/18 06:14:12;;;;;;;6.00;5.40;;;;;;;5.96;100.00;99593.88;6096408;23;20164;-77
2022/04/18 06:16:45;;;;;;;5.80;5.30;;;;;;;6.11;100.00;99581.31;6094509;23;20172;-77
2022/04/18 06:19:14;;;;;;;8.67;6.83;;;;;;;6.28;100.00;99577.34;6119071;23;20178;-77
2022/04/18 06:21:41;;;;;;;10.20;8.07;;;;;;;6.40;100.00;99564.31;6124890;23;20197;-76
2022/04/18 06:24:09;;;;;;;8.03;6.43;;;;;;;6.58;100.00;99567.31;6099412;23;20175;-77
2022/04/18 06:26:56;;;;;;;5.80;5.20;;;;;;;6.62;100.00;99568.59;6124303;23;20629;-77
2022/04/18 06:29:23;;;;;;;5.43;4.90;;;;;;;6.77;100.00;99571.94;6099272;23;20222;-77
2022/04/18 06:31:53;;;;;;;5.60;4.67;;;;;;;6.80;100.00;99573.41;6098863;23;20194;-78
2022/04/18 06:34:21;;;;;;;6.13;5.03;;;;;;;6.92;100.00;99577.97;6099507;23;20768;-77
2022/04/18 06:36:49;;;;;;;6.57;4.70;;;;;;;7.04;100.00;99592.38;6099380;23;20673;-79
2022/04/18 06:39:36;;;;;;;5.10;4.60;;;;;;;7.11;100.00;99592.41;6099506;23;20164;-77
2022/04/18 06:42:16;;;;;;;7.33;4.97;;;;;;;7.21;100.00;99595.53;6124024;23;20164;-77
2022/04/18 06:44:47;;;;;;;6.27;5.67;;;;;;;7.21;99.19;99603.50;6123867;23;20160;-77
2022/04/18 06:47:15;;;;;;;6.17;4.90;;;;;;;7.15;99.30;99598.97;6099203;23;20215;-77
2022/04/18 06:50:11;;;;;;;6.73;5.27;;;;;;;7.05;100.00;99604.66;6119833;23;20196;-77
2022/04/18 06:52:42;;;;;;;9.37;5.60;;;;;;;7.06;100.00;99608.16;6125975;23;20243;-77
2022/04/18 06:56:58;;;;;;;5.60;5.00;;;;;;;6.56;100.00;99601.31;6125125;23;20621;-77
2022/04/18 06:58:17;;;;;;;6.23;5.27;;;;;;;6.49;100.00;99598.59;6123971;23;20549;-77
2022/04/18 07:00:44;;;;;;;6.00;5.50;;;;;;;6.40;100.00;99598.91;6098905;23;20641;-77
2022/04/18 07:03:13;;;;;;;6.40;5.83;;;;;;;6.54;100.00;99598.00;6097336;23;20255;-77
2022/04/18 07:05:41;;;;;;;6.23;5.30;;;;;;;6.64;100.00;99582.50;6096489;23;20230;-77
2022/04/18 07:08:09;;;;;;;6.10;5.60;;;;;;;6.59;100.00;99583.09;6074695;23;20559;-77
2022/04/18 07:10:35;;;;;;;7.07;5.50;;;;;;;6.69;100.00;99576.59;6074211;23;20846;-76
2022/04/18 07:13:09;;;;;;;5.80;4.90;;;;;;;7.01;100.00;99592.75;6097440;23;20518;-77
2022/04/18 07:15:37;;;;;;;6.10;5.40;;;;;;;7.26;100.00;99579.75;6076583;23;20171;-76
2022/04/18 07:18:06;;;;;;;5.97;5.37;;;;;;;7.43;100.00;99582.88;6100990;23;20567;-77
2022/04/18 07:20:33;;;;;;;6.53;5.90;;;;;;;7.71;100.00;99582.75;6095542;23;20226;-77
2022/04/18 07:23:00;;;;;;;6.70;4.87;;;;;;;7.91;95.18;99586.28;6097617;23;20164;-76
2022/04/18 07:25:38;;;;;;;5.13;4.60;;;;;;;7.84;89.04;99583.59;6095993;23;20625;-77
2022/04/18 07:28:27;;;;;;;5.83;4.80;;;;;;;7.95;90.42;99579.50;6085685;23;20693;-76
2022/04/18 07:30:55;;;;;;;5.17;4.77;;;;;;;8.21;89.72;99573.38;6095796;23;20188;-77
2022/04/18 07:33:21;;;;;;;5.40;4.90;;;;;;;8.39;88.00;99562.94;6072316;23;20172;-77
2022/04/18 07:35:49;;;;;;;5.77;5.20;;;;;;;8.52;88.06;99565.56;6096194;23;20175;-77
2022/04/18 07:41:04;;;;;;;5.70;5.10;;;;;;;8.80;86.41;99563.47;6092971;23;20168;-77
2022/04/18 07:43:37;;;;;;;6.43;5.83;;;;;;;8.90;79.40;99560.34;6093366;23;20168;-77
2022/04/18 07:46:08;;;;;;;5.47;4.97;;;;;;;9.10;72.82;99554.91;6094861;23;20194;-77
2022/04/18 07:48:36;;;;;;;5.53;5.03;;;;;;;9.24;69.03;99561.84;6095606;23;20195;-77
2022/04/18 07:53:48;;;;;;;5.27;4.77;;;;;;;9.79;64.40;99556.84;6097675;23;20231;-77
2022/04/18 07:56:15;;;;;;;4.83;4.43;;;;;;;9.80;63.35;99553.91;6095549;23;20256;-77
2022/04/18 07:58:42;;;;;;;4.50;4.10;;;;;;;9.78;60.62;99560.53;6071939;23;20252;-77
2022/04/18 08:01:24;;;;;;;5.10;4.70;;;;;;;9.88;61.59;99559.03;6096243;23;20226;-77
2022/04/18 08:03:53;;;;;;;5.83;4.80;;;;;;;9.92;58.96;99556.75;6095704;23;20192;-76
2022/04/18 08:06:21;;;;;;;4.90;4.50;;;;;;;9.90;56.48;99561.47;6095309;23;20276;-77
2022/04/18 08:09:26;;;;;;;4.93;4.43;;;;;;;9.70;58.42;99553.59;6092398;23;20251;-77
2022/04/18 08:11:53;;;;;;;5.13;4.53;;;;;;;9.48;60.03;99557.63;6120009;23;20220;-77
2022/04/18 08:14:27;;;;;;;5.27;4.47;;;;;;;9.31;60.46;99553.81;6095605;23;20176;-77
2022/04/18 08:17:03;;;;;;;4.70;4.30;;;;;;;9.21;61.01;99551.59;6097253;23;20609;-77
2022/04/18 08:19:43;;;;;;;4.90;4.40;;;;;;;9.13;61.88;99554.50;6119642;23;20824;-77
2022/04/18 08:22:11;;;;;;;4.83;4.40;;;;;;;9.03;62.79;99554.13;6095171;23;20172;-77
2022/04/18 08:24:57;;;;;;;5.03;4.47;;;;;;;8.95;62.43;99549.84;6097036;23;20180;-78
2022/04/18 08:27:42;;;;;;;4.80;4.40;;;;;;;8.87;61.15;99550.06;6097519;23;20161;-77
2022/04/18 08:30:16;;;;;;;4.80;4.40;;;;;;;8.74;62.67;99547.44;6095216;23;20191;-77
2022/04/18 08:32:49;;;;;;;7.23;4.50;;;;;;;8.75;62.12;99544.56;6073145;23;20168;-78
2022/04/18 08:35:16;;;;;;;7.27;4.70;;;;;;;8.64;63.22;99547.06;6072034;23;20675;-77
2022/04/18 08:37:43;;;;;;;5.03;4.50;;;;;;;8.72;64.44;99557.53;6096177;23;20606;-77
2022/04/18 08:40:25;;;;;;;5.00;4.60;;;;;;;8.50;68.65;99551.59;6097972;23;20165;-77
2022/04/18 08:42:56;;;;;;;5.20;4.70;;;;;;;8.33;69.14;99553.06;6095357;23;20186;-77
2022/04/18 08:45:25;;;;;;;6.00;5.00;;;;;;;8.17;70.23;99554.25;6095361;23;20172;-77
2022/04/18 08:53:31;;;;;;;6.27;5.63;;;;;;;8.01;73.48;99535.19;6095424;23;20172;-77
2022/04/18 08:56:01;;;;;;;7.27;5.80;;;;;;;8.13;75.90;99533.53;6094945;23;20223;-77
2022/04/18 08:58:30;;;;;;;6.20;4.83;;;;;;;8.31;79.02;99536.41;6071708;23;20645;-77
2022/04/18 09:01:00;;;;;;;5.83;5.23;;;;;;;8.49;78.71;99536.59;6094133;23;20255;-77
2022/04/18 09:04:09;;;;;;;5.30;4.80;;;;;;;8.76;75.65;99540.88;6103303;23;20172;-77
2022/04/18 09:06:40;;;;;;;5.80;4.70;;;;;;;8.88;75.01;99526.84;6094825;23;20655;-77
2022/04/18 09:09:15;;;;;;;4.80;4.40;;;;;;;9.13;75.30;99530.47;6096717;23;20149;-77
2022/04/18 09:11:45;;;;;;;4.03;3.73;;;;;;;9.38;70.13;99519.84;6094546;23;20212;-77
2022/04/18 09:14:17;;;;;;;4.10;3.30;;;;;;;9.41;69.63;99522.91;6071909;23;20675;-77
2022/04/18 09:16:47;;;;;;;3.60;3.17;;;;;;;9.22;70.25;99523.84;6097029;23;20154;-77
2022/04/18 09:19:43;;;;;;;3.50;2.90;;;;;;;9.21;71.05;99508.81;6098540;23;20240;-78
2022/04/18 09:22:14;;;;;;;3.83;3.00;;;;;;;9.28;70.20;99502.41;6098240;23;20191;-78
2022/04/18 09:24:47;;;;;;;3.30;3.00;;;;;;;9.21;67.97;99508.81;6098647;23;20168;-78
2022/04/18 09:27:29;;;;;;;3.73;2.93;;;;;;;9.22;69.41;99518.50;6099456;23;20511;-77
2022/04/18 09:30:07;;;;;;;3.27;2.97;;;;;;;9.23;67.76;99510.25;6098881;23;20245;-79
2022/04/18 09:32:41;;;;;;;3.20;2.90;;;;;;;9.18;66.55;99512.75;6076892;23;20554;-77
2022/04/18 09:35:26;;;;;;;3.10;2.80;;;;;;;9.22;65.16;99510.47;6124233;23;20182;-78
2022/04/18 09:38:04;;;;;;;3.93;2.63;;;;;;;9.19;64.12;99513.56;6099601;23;20179;-78
2022/04/18 09:40:51;;;;;;;3.40;2.80;;;;;;;9.25;62.02;99516.19;6104693;23;20173;-78
2022/04/18 09:43:22;;;;;;;3.20;2.60;;;;;;;9.21;62.29;99519.50;6099731;23;20563;-78
2022/04/18 09:45:52;;;;;;;4.07;2.80;;;;;;;9.19;61.91;99517.03;6099084;23;20174;-77
2022/04/18 09:48:22;;;;;;;3.83;2.67;;;;;;;9.31;59.49;99513.72;6076871;23;20701;-78
2022/04/18 09:50:59;;;;;;;2.90;2.60;;;;;;;9.18;59.24;99509.25;6076990;23;20629;-78
2022/04/18 09:53:41;;;;;;;2.87;2.57;;;;;;;9.23;58.96;99506.78;6099782;23;20565;-77
2022/04/18 09:56:13;;;;;;;2.80;2.60;;;;;;;9.63;59.15;99513.50;6121958;23;20175;-77
2022/04/18 09:58:40;;;;;;;4.53;2.87;;;;;;;10.04;58.42;99501.47;6124357;23;20152;-77
2022/04/18 10:01:27;;;;;;;3.47;2.63;;;;;;;10.17;58.78;99504.06;6125461;23;20169;-77
2022/04/18 10:03:54;;;;;;;3.10;2.90;;;;;;;10.42;57.94;99493.31;6100313;23;20161;-77
2022/04/18 10:06:21;;;;;;;3.40;2.93;;;;;;;10.79;56.08;99510.22;6125636;23;20163;-77
2022/04/18 10:08:50;;;;;;;4.07;2.90;;;;;;;11.22;55.95;99510.09;6100511;23;20191;-78
2022/04/18 10:11:18;;;;;;;3.20;2.80;;;;;;;11.56;54.60;99495.19;6100158;23;20269;-78
2022/04/18 10:13:45;;;;;;;3.47;2.80;;;;;;;12.00;53.97;99504.63;6100331;23;20258;-78
2022/04/18 10:16:12;;;;;;;3.53;3.07;;;;;;;11.98;54.35;99506.75;6125491;23;20238;-77
2022/04/18 10:18:43;;;;;;;3.57;3.17;;;;;;;12.18;54.80;99499.97;6125664;23;20509;-77
2022/04/18 10:21:31;;;;;;;4.47;2.87;;;;;;;12.49;55.37;99490.75;6094627;23;20247;-77
2022/04/18 10:24:25;;;;;;;3.53;3.20;;;;;;;12.80;53.13;99493.03;6096263;23;20495;-77
2022/04/18 10:27:25;;;;;;;2.93;2.63;;;;;;;12.48;55.08;99491.81;6094850;23;20633;-78
2022/04/18 10:29:54;;;;;;;3.53;3.10;;;;;;;11.72;56.97;99483.78;6095079;23;20155;-77
2022/04/18 10:32:24;;;;;;;3.30;3.00;;;;;;;11.12;59.09;99483.81;6096319;23;20172;-77
2022/04/18 10:34:59;;;;;;;3.27;2.97;;;;;;;11.14;60.19;99478.25;6096335;23;20547;-78
2022/04/18 10:37:27;;;;;;;4.07;3.67;;;;;;;10.76;61.96;99475.84;6094971;23;20164;-77
2022/04/18 10:40:05;;;;;;;3.73;3.30;;;;;;;10.87;63.18;99483.13;6096421;23;20239;-78
2022/04/18 10:42:42;;;;;;;4.63;3.33;;;;;;;10.78;62.19;99471.09;6096359;23;20212;-77
2022/04/18 10:45:16;;;;;;;4.30;3.33;;;;;;;10.77;60.45;99472.13;6094766;23;20152;-78
2022/04/18 10:47:55;;;;;;;3.97;3.30;;;;;;;10.65;57.72;99472.03;6096375;23;20151;-77
2022/04/18 10:50:24;;;;;;;3.97;3.30;;;;;;;10.52;55.76;99467.66;6097998;23;20219;-77
2022/04/18 10:53:09;;;;;;;3.70;3.30;;;;;;;10.85;56.65;99463.75;6098044;23;20164;-77
2022/04/18 10:55:38;;;;;;;3.50;2.87;;;;;;;11.09;54.89;99460.16;6098065;23;20706;-78
2022/04/18 10:58:09;;;;;;;3.53;3.23;;;;;;;11.25;54.80;99466.72;6097830;23;20629;-77
2022/04/18 11:00:50;;;;;;;5.27;3.23;;;;;;;11.66;53.65;99464.06;6098409;23;20515;-77
2022/04/18 11:03:38;;;;;;;3.50;3.10;;;;;;;11.61;54.41;99469.31;6097881;23;20149;-78
2022/04/18 11:06:18;;;;;;;3.40;3.10;;;;;;;11.70;53.65;99453.69;6097886;23;20517;-77
2022/04/18 11:08:58;;;;;;;3.87;3.20;;;;;;;11.68;54.04;99453.91;6098165;23;20165;-78
2022/04/18 11:11:33;;;;;;;4.33;3.30;;;;;;;11.88;52.26;99451.75;6097543;23;20235;-77
2022/04/18 11:14:00;;;;;;;4.13;3.03;;;;;;;12.23;52.07;99453.63;6096318;23;20211;-77
2022/04/18 11:16:27;;;;;;;3.33;3.03;;;;;;;12.44;50.67;99450.34;6098023;23;20254;-77
2022/04/18 11:19:06;;;;;;;3.47;3.10;;;;;;;12.58;51.50;99456.28;6120797;23;20161;-77
2022/04/18 11:24:36;;;;;;;3.20;2.90;;;;;;;13.01;48.26;99443.19;6127203;23;20530;-78
2022/04/18 11:27:11;;;;;;;3.90;3.30;;;;;;;13.59;47.83;99451.00;6127380;23;20214;-77
2022/04/18 11:29:39;;;;;;;3.57;3.23;;;;;;;13.74;47.50;99450.44;6127108;23;20156;-78
2022/04/18 11:32:06;;;;;;;4.57;3.03;;;;;;;13.61;48.05;99448.88;6101207;23;20263;-77
2022/04/18 11:34:35;;;;;;;4.17;3.30;;;;;;;13.85;47.19;99443.34;6126694;23;20156;-77
2022/04/18 11:37:04;;;;;;;5.90;3.20;;;;;;;13.30;48.64;99446.69;6127152;23;20579;-77
2022/04/18 11:40:03;;;;;;;3.73;3.10;;;;;;;13.66;47.66;99446.28;6126821;23;20156;-77
2022/04/18 11:42:30;;;;;;;4.57;3.03;;;;;;;13.65;48.40;99441.94;6126738;23;20246;-77
2022/04/18 11:44:59;;;;;;;3.17;2.97;;;;;;;14.22;46.92;99431.00;6126982;23;20243;-77
2022/04/18 11:47:29;;;;;;;3.60;3.30;;;;;;;14.31;47.42;99434.06;6126542;23;20167;-77
2022/04/18 11:50:01;;;;;;;3.50;3.20;;;;;;;14.47;45.80;99430.53;6126789;23;20183;-77
2022/04/18 11:52:30;;;;;;;3.13;2.87;;;;;;;14.29;47.43;99428.91;6126616;23;20685;-78
2022/04/18 11:55:11;;;;;;;3.73;3.10;;;;;;;14.29;46.17;99426.22;6126724;23;20168;-78
2022/04/18 11:57:38;;;;;;;3.13;2.83;;;;;;;13.87;47.46;99420.50;6126775;23;20179;-77
2022/04/18 12:06:44;;;;;;;3.50;3.20;;;;;;;13.82;48.02;99409.63;6126379;23;20187;-78
2022/04/18 12:08:36;;;;;;;3.47;3.17;;;;;;;13.05;50.43;99406.69;6126772;23;20211;-77
2022/04/18 12:11:04;;;;;;;4.60;3.13;;;;;;;12.94;51.07;99401.34;6126338;23;20211;-78
2022/04/18 12:13:31;;;;;;;3.77;3.30;;;;;;;13.18;50.54;99402.91;6126573;23;20168;-77
2022/04/18 12:15:59;;;;;;;3.77;3.30;;;;;;;13.52;49.64;99391.13;6126414;23;20207;-78
2022/04/18 12:18:26;;;;;;;3.67;3.30;;;;;;;13.60;50.75;99390.72;6126434;23;20235;-78
2022/04/18 12:20:53;;;;;;;4.00;2.90;;;;;;;13.51;49.81;99386.81;6126440;23;20250;-78
2022/04/18 12:23:21;;;;;;;3.40;3.10;;;;;;;14.11;49.42;99378.84;6126415;23;20167;-77
2022/04/18 12:25:50;;;;;;;3.30;3.00;;;;;;;14.03;47.75;99376.56;6126195;23;20516;-77